Time;durP1;ratioP1;P1;durP2;ratioP2;P2;SDS_P1;SDS_P2;PMS_P1;PMS_P2;Temp;Humidity;BMP_temperature;BMP_pressure;BME280_temperature;BME280_humidity;BME280_pressure;Samples;Min_cycle;Max_cycle;Signal;HPM_P1;HPM_P2
2022/09/10 00:00:45;;;;;;;12.18;10.98;;;13.20;99.90;;;;;;4950916;28;20035;-77
2022/09/10 00:03:11;;;;;;;12.30;11.00;;;13.20;99.90;;;;;;4927178;29;20572;-77
2022/09/10 00:05:42;;;;;;;12.68;11.43;;;13.20;99.90;;;;;;4953524;29;20121;-77
2022/09/10 00:08:09;;;;;;;13.25;11.50;;;13.20;99.90;;;;;;4921230;28;20049;-77
2022/09/10 00:10:46;;;;;;;11.77;10.65;;;13.20;99.90;;;;;;4928310;28;20494;-77
2022/09/10 00:13:14;;;;;;;11.20;10.10;;;13.20;99.90;;;;;;4949732;29;20082;-77
2022/09/10 00:16:02;;;;;;;12.30;11.10;;;13.20;99.90;;;;;;4925841;29;20044;-77
2022/09/10 00:18:28;;;;;;;12.63;11.32;;;13.20;99.90;;;;;;4917899;29;20082;-77
2022/09/10 00:20:56;;;;;;;12.55;10.73;;;13.20;99.90;;;;;;4928974;28;20042;-77
2022/09/10 00:23:24;;;;;;;12.68;11.38;;;13.10;99.90;;;;;;4940329;28;20038;-77
2022/09/10 00:25:52;;;;;;;13.27;11.82;;;13.10;99.90;;;;;;4953861;28;20031;-77
2022/09/10 00:28:18;;;;;;;12.20;10.90;;;13.10;99.90;;;;;;4956207;28;20474;-77
2022/09/10 00:30:46;;;;;;;13.07;11.35;;;13.10;99.90;;;;;;4933280;28;20422;-78
2022/09/10 00:33:13;;;;;;;12.90;11.30;;;13.10;99.90;;;;;;4929626;29;20055;-77
2022/09/10 00:35:39;;;;;;;14.70;12.23;;;13.10;99.90;;;;;;4928985;29;20470;-78
2022/09/10 00:38:05;;;;;;;13.07;11.68;;;13.10;99.90;;;;;;4921067;29;20042;-78
2022/09/10 00:40:31;;;;;;;14.48;12.57;;;13.10;99.90;;;;;;4951790;29;20071;-77
2022/09/10 00:42:57;;;;;;;13.90;11.93;;;13.10;99.90;;;;;;4929106;29;20081;-78
2022/09/10 00:45:28;;;;;;;13.15;11.30;;;13.10;99.90;;;;;;4953064;29;20508;-78
2022/09/10 00:48:06;;;;;;;14.82;13.13;;;13.10;99.90;;;;;;4952745;29;20082;-77
2022/09/10 00:50:36;;;;;;;15.48;13.68;;;13.20;99.90;;;;;;4944056;29;20051;-77
2022/09/10 00:53:07;;;;;;;15.77;13.15;;;13.20;99.90;;;;;;4944287;28;20038;-78
2022/09/10 00:55:35;;;;;;;17.33;13.63;;;13.20;99.90;;;;;;4944592;29;20039;-78
2022/09/10 00:58:04;;;;;;;16.85;14.10;;;13.30;99.90;;;;;;4947402;29;20039;-78
2022/09/10 01:00:30;;;;;;;16.67;14.25;;;13.30;99.90;;;;;;4948823;28;20047;-77
2022/09/10 01:02:57;;;;;;;17.55;14.77;;;13.40;99.90;;;;;;4954757;28;20038;-78
2022/09/10 01:05:24;;;;;;;17.92;14.40;;;13.40;99.90;;;;;;4950831;28;20070;-77
2022/09/10 01:07:51;;;;;;;18.88;14.82;;;13.40;99.90;;;;;;4944574;29;20054;-77
2022/09/10 01:10:27;;;;;;;19.52;16.33;;;13.50;99.90;;;;;;4952433;28;20081;-77
2022/09/10 01:13:14;;;;;;;19.05;14.90;;;13.50;99.90;;;;;;4952458;29;20043;-77
2022/09/10 01:16:29;;;;;;;17.15;14.35;;;13.50;99.90;;;;;;4951306;29;20050;-77
2022/09/10 01:19:01;;;;;;;18.30;14.32;;;13.60;99.90;;;;;;4935784;28;20054;-78
2022/09/10 01:21:54;;;;;;;17.30;15.30;;;13.60;99.90;;;;;;4955423;28;20065;-78
2022/09/10 01:24:55;;;;;;;18.40;15.38;;;13.70;99.90;;;;;;4934659;29;20138;-78
2022/09/10 01:27:39;;;;;;;18.83;14.85;;;13.70;99.90;;;;;;4946852;29;20035;-77
2022/09/10 01:30:19;;;;;;;18.98;14.77;;;13.70;99.90;;;;;;4948869;28;20050;-77
2022/09/10 01:32:50;;;;;;;19.20;15.95;;;13.70;99.90;;;;;;4955456;28;20517;-77
2022/09/10 01:35:21;;;;;;;16.63;14.88;;;13.70;99.90;;;;;;4955470;28;20031;-77
2022/09/10 01:37:52;;;;;;;16.45;14.55;;;13.70;99.90;;;;;;4943028;29;20047;-78
2022/09/10 01:40:18;;;;;;;17.50;14.65;;;13.70;99.90;;;;;;4922921;29;20046;-78
2022/09/10 01:42:44;;;;;;;17.23;14.60;;;13.70;99.90;;;;;;4928050;29;20040;-78
2022/09/10 01:45:14;;;;;;;16.20;13.82;;;13.70;99.90;;;;;;4953382;28;20043;-77
2022/09/10 01:48:13;;;;;;;15.63;13.90;;;13.70;99.90;;;;;;4953270;29;20074;-78
2022/09/10 01:51:24;;;;;;;16.30;14.60;;;13.70;99.90;;;;;;4936288;29;20402;-77
2022/09/10 01:54:23;;;;;;;15.85;13.85;;;13.70;99.90;;;;;;4938430;28;20099;-77
2022/09/10 01:57:09;;;;;;;16.60;14.10;;;13.70;99.90;;;;;;4942507;28;20051;-77
2022/09/10 01:59:43;;;;;;;16.05;14.32;;;13.70;99.90;;;;;;4955083;28;20047;-77
2022/09/10 02:02:18;;;;;;;17.95;14.20;;;13.60;99.90;;;;;;4946379;28;20039;-77
2022/09/10 02:04:46;;;;;;;15.73;13.70;;;13.70;99.90;;;;;;4934791;28;20047;-77
2022/09/10 02:07:14;;;;;;;17.73;14.32;;;13.70;99.90;;;;;;4958820;28;20395;-77
2022/09/10 02:09:41;;;;;;;15.68;13.95;;;13.70;99.90;;;;;;4942723;28;20042;-77
2022/09/10 02:12:07;;;;;;;15.90;13.88;;;13.70;99.90;;;;;;4947138;29;20044;-77
2022/09/10 02:14:33;;;;;;;17.38;14.73;;;13.80;99.90;;;;;;4952963;28;20047;-77
2022/09/10 02:16:59;;;;;;;19.17;14.50;;;13.80;99.90;;;;;;4958461;28;20486;-77
2022/09/10 02:19:26;;;;;;;15.85;13.57;;;13.80;99.90;;;;;;4942575;28;20043;-77
2022/09/10 02:21:56;;;;;;;17.23;14.75;;;13.80;99.90;;;;;;4952913;28;20053;-77
2022/09/10 02:24:22;;;;;;;17.27;13.90;;;13.80;99.90;;;;;;4957459;28;20053;-77
2022/09/10 02:26:48;;;;;;;16.30;14.38;;;13.90;99.90;;;;;;4953458;28;20047;-77
2022/09/10 02:29:15;;;;;;;19.80;15.98;;;13.80;99.90;;;;;;4939265;29;20406;-77
2022/09/10 02:31:42;;;;;;;17.52;14.77;;;13.90;99.90;;;;;;4939278;29;20039;-77
2022/09/10 02:34:09;;;;;;;17.80;14.23;;;13.90;99.90;;;;;;4946626;28;20043;-77
2022/09/10 02:36:35;;;;;;;18.50;15.45;;;14.00;99.90;;;;;;4958081;28;20053;-77
2022/09/10 02:39:03;;;;;;;16.30;14.45;;;14.00;99.90;;;;;;4940225;29;20428;-77
2022/09/10 02:41:32;;;;;;;17.35;14.95;;;14.00;99.90;;;;;;4927165;29;20194;-77
2022/09/10 02:44:02;;;;;;;16.52;14.30;;;14.00;99.90;;;;;;4942075;28;20031;-77
2022/09/10 02:46:28;;;;;;;16.92;14.68;;;14.10;99.90;;;;;;4958012;28;20125;-77
2022/09/10 02:48:54;;;;;;;16.33;14.05;;;14.10;99.90;;;;;;4984496;23;20459;-77
2022/09/10 02:51:21;;;;;;;16.50;13.43;;;14.20;99.90;;;;;;4961080;28;20069;-77
2022/09/10 02:53:48;;;;;;;18.45;14.52;;;14.20;99.90;;;;;;4925054;28;20035;-77
2022/09/10 02:56:14;;;;;;;16.45;13.82;;;14.10;99.90;;;;;;4955573;28;20416;-77
2022/09/10 02:58:40;;;;;;;15.23;13.63;;;14.20;99.90;;;;;;4960822;28;20131;-77
2022/09/10 03:01:13;;;;;;;15.75;12.90;;;14.20;99.90;;;;;;4961391;28;20034;-77
2022/09/10 03:03:40;;;;;;;16.63;13.73;;;14.20;99.90;;;;;;4961466;28;20049;-77
2022/09/10 03:06:06;;;;;;;17.23;13.65;;;14.30;99.90;;;;;;4957109;28;20050;-77
2022/09/10 03:08:33;;;;;;;16.10;13.75;;;14.30;99.90;;;;;;4949771;28;20039;-77
2022/09/10 03:10:59;;;;;;;15.50;13.13;;;14.30;99.90;;;;;;4941807;28;20086;-77
2022/09/10 03:13:28;;;;;;;16.48;13.60;;;14.30;99.90;;;;;;4942075;28;20090;-77
2022/09/10 03:15:55;;;;;;;14.60;12.70;;;14.30;99.90;;;;;;4944423;28;20508;-77
2022/09/10 03:18:22;;;;;;;14.50;12.80;;;14.30;99.90;;;;;;4957664;28;20039;-77
2022/09/10 03:20:49;;;;;;;14.98;13.38;;;14.30;99.90;;;;;;4942215;28;20031;-77
2022/09/10 03:23:15;;;;;;;14.88;12.73;;;14.30;99.90;;;;;;4941662;28;20030;-77
2022/09/10 03:25:41;;;;;;;13.38;11.98;;;14.40;99.90;;;;;;4942533;28;20049;-77
2022/09/10 03:28:09;;;;;;;15.50;12.38;;;14.30;99.90;;;;;;4959923;28;20121;-77
2022/09/10 03:30:36;;;;;;;14.60;11.82;;;14.40;99.90;;;;;;4956944;28;20093;-77
2022/09/10 03:33:03;;;;;;;17.20;13.32;;;14.40;99.90;;;;;;4940561;28;20038;-77
2022/09/10 03:35:29;;;;;;;17.40;12.90;;;14.30;99.90;;;;;;4940694;28;20043;-77
2022/09/10 03:37:55;;;;;;;16.08;12.07;;;14.30;99.90;;;;;;4960030;28;20125;-75
2022/09/10 03:40:24;;;;;;;14.25;12.75;;;14.40;99.90;;;;;;4960563;28;20038;-75
2022/09/10 03:42:51;;;;;;;14.80;11.77;;;14.40;99.90;;;;;;4953080;28;20042;-75
2022/09/10 03:45:17;;;;;;;13.70;12.25;;;14.40;99.90;;;;;;4947378;28;20092;-76
2022/09/10 03:47:43;;;;;;;13.57;11.98;;;14.40;99.90;;;;;;4942131;28;20039;-76
2022/09/10 03:50:11;;;;;;;13.27;11.93;;;14.40;99.90;;;;;;4960133;28;20540;-75
2022/09/10 03:52:37;;;;;;;15.50;12.77;;;14.40;99.90;;;;;;4960577;28;20046;-75
2022/09/10 03:55:03;;;;;;;14.15;12.20;;;14.40;99.90;;;;;;4959905;28;20046;-76
2022/09/10 03:57:29;;;;;;;13.18;11.35;;;14.40;99.90;;;;;;4953139;28;20516;-75
2022/09/10 03:59:55;;;;;;;15.35;12.27;;;14.40;99.90;;;;;;4968595;28;20054;-76
2022/09/10 04:02:21;;;;;;;13.70;12.00;;;14.40;99.90;;;;;;4960275;28;20515;-76
2022/09/10 04:04:47;;;;;;;13.93;12.40;;;14.40;99.90;;;;;;4960164;28;20432;-75
2022/09/10 04:07:16;;;;;;;14.25;12.43;;;14.40;99.90;;;;;;4972799;28;20048;-75
2022/09/10 04:09:41;;;;;;;13.52;12.13;;;14.40;99.90;;;;;;4975761;28;20046;-75
2022/09/10 04:12:07;;;;;;;14.80;12.35;;;14.30;99.90;;;;;;4952331;28;20101;-75
2022/09/10 04:14:33;;;;;;;13.25;11.63;;;14.30;99.90;;;;;;4943248;28;20049;-75
2022/09/10 04:16:59;;;;;;;13.60;11.93;;;14.30;99.90;;;;;;4939694;28;20046;-75
2022/09/10 04:19:26;;;;;;;14.15;12.02;;;14.30;99.90;;;;;;4955822;28;20042;-75
2022/09/10 04:21:56;;;;;;;14.23;11.57;;;14.20;99.90;;;;;;4967281;28;20505;-75
2022/09/10 04:24:22;;;;;;;13.55;12.15;;;14.20;99.90;;;;;;4956152;28;20125;-75
2022/09/10 04:26:48;;;;;;;14.38;12.48;;;14.20;99.90;;;;;;4940136;28;20134;-75
2022/09/10 04:29:14;;;;;;;15.38;12.18;;;14.10;99.90;;;;;;4933335;28;20386;-75
2022/09/10 04:31:41;;;;;;;13.20;11.75;;;14.10;99.90;;;;;;4959445;28;20576;-75
2022/09/10 04:34:07;;;;;;;13.82;12.32;;;14.10;99.90;;;;;;4959531;28;20132;-75
2022/09/10 04:36:32;;;;;;;15.00;12.07;;;14.10;99.90;;;;;;4945105;28;20493;-75
2022/09/10 04:38:58;;;;;;;13.93;11.93;;;14.10;99.90;;;;;;4950972;28;20066;-75
2022/09/10 04:41:27;;;;;;;14.38;12.10;;;14.00;99.90;;;;;;4959478;28;20034;-75
2022/09/10 04:43:53;;;;;;;12.98;11.57;;;14.00;99.90;;;;;;4959538;28;20038;-75
2022/09/10 04:46:22;;;;;;;15.05;12.50;;;14.00;99.90;;;;;;4959513;28;20078;-75
2022/09/10 04:48:48;;;;;;;14.38;11.52;;;13.90;99.90;;;;;;4941048;28;20046;-75
2022/09/10 04:51:14;;;;;;;13.43;12.02;;;14.00;99.90;;;;;;4953712;28;20046;-75
2022/09/10 04:53:40;;;;;;;14.35;12.13;;;13.90;99.90;;;;;;4941601;28;20164;-75
2022/09/10 04:56:07;;;;;;;13.32;11.85;;;13.90;99.90;;;;;;4939333;28;20182;-75
2022/09/10 04:58:33;;;;;;;13.10;11.60;;;13.90;99.90;;;;;;4952022;28;20100;-75
2022/09/10 05:00:59;;;;;;;14.82;11.88;;;13.90;99.90;;;;;;4959073;28;20129;-75
2022/09/10 05:03:24;;;;;;;13.93;11.60;;;13.90;99.90;;;;;;4945921;28;20039;-75
2022/09/10 05:05:50;;;;;;;16.83;11.95;;;13.90;99.90;;;;;;4942027;28;20026;-75
2022/09/10 05:08:16;;;;;;;14.93;12.10;;;13.90;99.90;;;;;;4951728;28;20046;-75
2022/09/10 05:10:45;;;;;;;16.27;11.80;;;13.90;99.90;;;;;;4957401;28;20042;-75
2022/09/10 05:13:11;;;;;;;13.68;11.13;;;13.80;99.90;;;;;;4959064;28;20072;-75
2022/09/10 05:15:39;;;;;;;15.88;12.82;;;13.90;99.90;;;;;;4958826;28;20121;-75
2022/09/10 05:18:04;;;;;;;16.92;12.38;;;13.90;99.90;;;;;;4945389;28;20162;-75
2022/09/10 05:20:30;;;;;;;16.20;12.55;;;13.90;99.90;;;;;;4955661;28;20564;-75
2022/09/10 05:22:59;;;;;;;16.08;11.90;;;13.90;99.90;;;;;;4958629;28;20496;-75
2022/09/10 05:25:27;;;;;;;14.60;12.25;;;13.90;99.90;;;;;;4958836;28;20038;-75
2022/09/10 05:27:54;;;;;;;16.23;12.55;;;13.90;99.90;;;;;;4929912;29;20051;-75
2022/09/10 05:30:20;;;;;;;15.18;12.73;;;14.00;99.90;;;;;;4926326;28;20058;-75
2022/09/10 05:32:46;;;;;;;16.50;12.32;;;14.00;99.90;;;;;;4939738;28;20057;-77
2022/09/10 05:35:12;;;;;;;14.55;11.88;;;14.00;99.90;;;;;;4939657;28;20548;-76
2022/09/10 05:37:38;;;;;;;16.08;11.45;;;13.90;99.90;;;;;;4929758;28;20121;-76
2022/09/10 05:40:08;;;;;;;15.73;12.00;;;13.90;99.90;;;;;;4930605;28;20038;-76
2022/09/10 05:42:34;;;;;;;15.32;12.77;;;13.90;99.90;;;;;;4923696;29;20039;-76
2022/09/10 05:45:00;;;;;;;16.27;12.75;;;14.00;99.90;;;;;;4920307;29;20054;-76
2022/09/10 05:47:27;;;;;;;16.02;12.57;;;14.00;99.90;;;;;;4916500;29;20042;-76
2022/09/10 05:49:54;;;;;;;17.30;13.45;;;14.00;99.90;;;;;;4938222;28;20046;-77
2022/09/10 05:52:19;;;;;;;17.10;13.88;;;14.00;99.90;;;;;;4939648;28;20043;-76
2022/09/10 05:54:45;;;;;;;16.05;13.18;;;14.10;99.90;;;;;;4923585;28;20047;-76
2022/09/10 05:57:14;;;;;;;17.65;13.70;;;14.10;99.90;;;;;;4918403;28;20071;-76
2022/09/10 05:59:40;;;;;;;20.60;13.15;;;14.20;99.90;;;;;;4930695;28;20121;-76
2022/09/10 06:02:06;;;;;;;16.38;13.40;;;14.20;99.90;;;;;;4939254;28;20050;-77
2022/09/10 06:04:31;;;;;;;17.52;13.02;;;14.20;99.90;;;;;;4945959;29;20047;-76
2022/09/10 06:06:57;;;;;;;19.48;13.25;;;14.20;99.90;;;;;;4920542;28;20043;-77
2022/09/10 06:09:23;;;;;;;19.50;14.45;;;14.40;99.90;;;;;;4935383;28;20047;-77
2022/09/10 06:11:50;;;;;;;17.10;13.65;;;14.30;99.90;;;;;;4948864;28;20054;-77
2022/09/10 06:14:16;;;;;;;17.15;14.10;;;14.40;99.90;;;;;;4942545;28;20046;-77
2022/09/10 06:16:42;;;;;;;18.55;14.20;;;14.40;99.90;;;;;;4934604;28;20070;-77
2022/09/10 06:19:08;;;;;;;21.67;15.02;;;14.50;99.90;;;;;;4933012;28;20039;-77
2022/09/10 06:21:34;;;;;;;18.52;14.80;;;14.50;99.90;;;;;;4937246;28;20043;-77
2022/09/10 06:24:00;;;;;;;20.58;15.13;;;14.60;99.90;;;;;;4919970;29;20039;-77
2022/09/10 06:26:26;;;;;;;18.95;13.65;;;14.60;99.90;;;;;;4942640;28;20082;-80
2022/09/10 06:28:54;;;;;;;19.85;14.20;;;14.60;99.90;;;;;;4921702;28;20039;-76
2022/09/10 06:31:19;;;;;;;19.20;14.48;;;14.70;99.90;;;;;;4926523;28;20082;-76
2022/09/10 06:33:47;;;;;;;19.58;14.52;;;14.70;99.90;;;;;;4913818;29;20548;-76
2022/09/10 06:36:14;;;;;;;19.17;14.93;;;14.80;99.90;;;;;;4915992;29;20035;-76
2022/09/10 06:38:40;;;;;;;18.67;14.35;;;14.80;99.90;;;;;;4935292;28;20059;-76
2022/09/10 06:41:10;;;;;;;20.98;15.40;;;14.80;99.90;;;;;;4933829;28;20031;-76
2022/09/10 06:43:38;;;;;;;17.02;13.20;;;14.90;99.90;;;;;;4958447;28;20125;-77
2022/09/10 06:46:13;;;;;;;19.23;14.65;;;14.90;99.90;;;;;;4942511;28;20043;-76
2022/09/10 06:48:40;;;;;;;18.00;15.15;;;14.90;99.90;;;;;;4930075;28;20043;-76
2022/09/10 06:51:09;;;;;;;18.70;14.05;;;14.90;99.90;;;;;;4928395;28;20038;-76
2022/09/10 06:53:36;;;;;;;19.80;14.15;;;14.90;99.90;;;;;;4924458;29;20082;-77
2022/09/10 06:56:07;;;;;;;17.08;14.02;;;14.90;99.90;;;;;;4945002;29;20036;-80
2022/09/10 06:58:37;;;;;;;17.27;13.98;;;14.90;99.90;;;;;;4915262;28;20106;-79
2022/09/10 07:01:08;;;;;;;17.77;14.48;;;14.90;99.90;;;;;;4915355;29;20093;-79
2022/09/10 07:03:40;;;;;;;19.83;14.70;;;14.90;99.90;;;;;;4921043;28;20043;-79
2022/09/10 07:06:08;;;;;;;20.05;14.95;;;15.00;99.90;;;;;;4922719;29;20781;-78
2022/09/10 07:08:34;;;;;;;19.23;14.75;;;15.10;99.90;;;;;;4928542;28;20129;-78
2022/09/10 07:11:07;;;;;;;20.45;15.10;;;15.30;99.90;;;;;;4941772;28;20129;-78
2022/09/10 07:13:42;;;;;;;17.15;14.30;;;15.40;99.90;;;;;;4954421;28;20047;-81
2022/09/10 07:16:08;;;;;;;16.38;13.73;;;15.40;99.90;;;;;;4937943;29;20380;-79
2022/09/10 07:18:35;;;;;;;18.08;14.93;;;15.50;99.90;;;;;;4913248;29;20048;-80
2022/09/10 07:21:17;;;;;;;18.10;14.10;;;15.70;99.90;;;;;;4923716;29;20046;-79
2022/09/10 07:23:44;;;;;;;18.77;13.38;;;15.60;99.90;;;;;;4913534;29;20039;-79
2022/09/10 07:26:25;;;;;;;15.15;13.43;;;15.70;99.90;;;;;;4929757;29;20039;-79
2022/09/10 07:28:54;;;;;;;14.75;11.57;;;16.00;99.90;;;;;;4921513;29;20039;-78
2022/09/10 07:31:26;;;;;;;13.27;11.07;;;16.00;99.90;;;;;;4920967;29;20099;-78
2022/09/10 07:33:58;;;;;;;16.30;10.80;;;16.00;99.90;;;;;;4922212;29;20445;-78
2022/09/10 07:36:24;;;;;;;12.30;9.80;;;16.00;99.90;;;;;;4921379;29;20490;-78
2022/09/10 07:39:00;;;;;;;11.85;9.18;;;16.10;99.90;;;;;;4920459;28;20077;-78
2022/09/10 07:41:32;;;;;;;11.73;9.63;;;16.10;99.90;;;;;;4920973;29;20043;-78
2022/09/10 07:44:06;;;;;;;10.75;8.75;;;16.10;99.90;;;;;;4920665;29;20121;-78
2022/09/10 07:46:41;;;;;;;11.48;9.20;;;16.20;99.90;;;;;;4913279;29;20146;-78
2022/09/10 07:49:13;;;;;;;11.75;9.10;;;16.30;99.90;;;;;;4912318;29;20466;-78
2022/09/10 07:51:41;;;;;;;11.02;8.82;;;16.30;99.90;;;;;;4918314;28;20126;-78
2022/09/10 07:54:07;;;;;;;10.63;8.82;;;16.30;99.90;;;;;;4919575;29;20035;-78
2022/09/10 07:56:42;;;;;;;10.73;9.27;;;16.30;99.90;;;;;;4935353;28;20094;-78
2022/09/10 07:59:08;;;;;;;11.20;9.40;;;16.30;99.90;;;;;;4923822;29;20048;-75
2022/09/10 08:01:37;;;;;;;11.32;9.73;;;16.30;99.90;;;;;;4934245;29;20035;-76
2022/09/10 08:04:09;;;;;;;10.63;9.23;;;16.40;99.90;;;;;;4919520;28;20039;-76
2022/09/10 08:06:34;;;;;;;11.07;8.95;;;16.40;99.90;;;;;;4924397;29;20140;-76
2022/09/10 08:09:08;;;;;;;10.70;9.15;;;16.50;99.90;;;;;;4920383;29;20066;-76
2022/09/10 08:11:34;;;;;;;11.88;9.00;;;16.60;99.90;;;;;;4946616;28;20035;-76
2022/09/10 08:14:03;;;;;;;11.70;8.55;;;16.80;99.90;;;;;;4926126;29;20039;-77
2022/09/10 08:16:39;;;;;;;9.90;8.57;;;16.90;99.90;;;;;;4930307;29;20050;-78
2022/09/10 08:19:05;;;;;;;10.80;8.70;;;17.00;99.90;;;;;;4919607;29;20047;-78
2022/09/10 08:21:50;;;;;;;11.10;8.35;;;17.10;99.90;;;;;;4917225;29;20405;-78
2022/09/10 08:24:19;;;;;;;9.68;7.68;;;17.20;99.90;;;;;;4909522;29;20565;-78
2022/09/10 08:26:48;;;;;;;10.02;7.95;;;17.40;99.90;;;;;;4903525;29;20043;-78
2022/09/10 08:29:19;;;;;;;9.07;7.28;;;17.50;99.90;;;;;;4920447;29;20050;-77
2022/09/10 08:31:48;;;;;;;7.90;6.47;;;17.70;99.90;;;;;;4920982;29;20047;-78
2022/09/10 08:34:17;;;;;;;7.40;6.60;;;17.90;99.90;;;;;;4912882;29;20122;-78
2022/09/10 08:36:46;;;;;;;7.93;7.13;;;18.00;99.90;;;;;;4920661;28;20468;-76
2022/09/10 08:39:14;;;;;;;9.23;7.57;;;18.00;99.90;;;;;;4932710;29;20115;-78
2022/09/10 08:41:55;;;;;;;8.85;6.53;;;18.00;99.90;;;;;;4921300;29;20040;-78
2022/09/10 08:44:33;;;;;;;6.22;5.60;;;18.10;99.90;;;;;;4920033;29;20083;-77
2022/09/10 08:47:11;;;;;;;6.53;5.82;;;18.30;99.90;;;;;;4907857;28;20082;-78
2022/09/10 08:49:43;;;;;;;7.40;6.10;;;18.30;99.90;;;;;;4928044;23;20039;-78
2022/09/10 08:52:25;;;;;;;8.50;6.07;;;18.10;99.90;;;;;;4954329;28;20047;-77
2022/09/10 08:55:15;;;;;;;7.55;6.75;;;18.10;99.90;;;;;;4924239;28;20026;-78
2022/09/10 08:57:50;;;;;;;8.35;6.43;;;18.00;99.90;;;;;;4929704;28;20039;-77
2022/09/10 09:00:22;;;;;;;7.75;6.95;;;17.90;99.90;;;;;;4895045;29;20075;-78
2022/09/10 09:03:01;;;;;;;7.22;6.40;;;17.90;99.90;;;;;;4926875;29;20036;-77
2022/09/10 09:05:29;;;;;;;7.68;6.75;;;18.00;99.90;;;;;;4895223;29;20043;-76
2022/09/10 09:07:58;;;;;;;8.13;6.18;;;18.20;99.90;;;;;;4908858;29;20066;-76
2022/09/10 09:10:23;;;;;;;8.73;6.65;;;18.20;99.90;;;;;;4914385;29;20498;-77
2022/09/10 09:13:07;;;;;;;8.32;6.80;;;18.30;99.90;;;;;;4900867;29;20054;-76
2022/09/10 09:16:13;;;;;;;7.38;6.63;;;18.40;99.90;;;;;;4900773;29;20047;-76
2022/09/10 09:19:06;;;;;;;8.90;6.50;;;18.30;99.90;;;;;;4897671;29;20505;-76
2022/09/10 09:21:53;;;;;;;8.35;6.85;;;18.50;99.90;;;;;;4927808;29;20058;-77
2022/09/10 09:24:24;;;;;;;9.35;7.32;;;18.80;99.90;;;;;;4918527;29;20062;-78
2022/09/10 09:26:56;;;;;;;7.80;7.00;;;18.80;99.90;;;;;;4901588;29;20044;-78
2022/09/10 09:29:31;;;;;;;8.13;7.13;;;18.60;99.90;;;;;;4899147;29;20430;-77
2022/09/10 09:32:01;;;;;;;6.65;5.93;;;18.60;99.90;;;;;;4924740;29;20102;-79
2022/09/10 09:34:39;;;;;;;7.22;5.55;;;18.80;99.90;;;;;;4926513;29;20040;-78
2022/09/10 09:37:24;;;;;;;8.27;5.97;;;18.90;99.90;;;;;;4900012;29;20039;-78
2022/09/10 09:40:12;;;;;;;7.47;5.63;;;19.30;99.90;;;;;;4898737;29;20410;-79
2022/09/10 09:42:55;;;;;;;7.85;5.40;;;19.80;99.90;;;;;;4924002;29;20040;-78
2022/09/10 09:45:27;;;;;;;6.85;6.15;;;20.30;99.90;;;;;;4916778;29;20053;-78
2022/09/10 09:47:53;;;;;;;6.67;5.30;;;20.50;99.90;;;;;;4916427;29;20139;-78
2022/09/10 09:50:19;;;;;;;5.22;4.72;;;20.80;99.90;;;;;;4920739;29;20122;-78
2022/09/10 09:52:46;;;;;;;5.95;4.65;;;21.10;99.90;;;;;;4913963;29;20050;-78
2022/09/10 09:55:40;;;;;;;5.88;4.07;;;21.50;99.90;;;;;;4908961;29;20047;-82
2022/09/10 09:58:21;;;;;;;5.03;3.55;;;21.60;99.90;;;;;;4897158;29;21653;-78
2022/09/10 10:01:11;;;;;;;4.93;4.05;;;21.60;99.90;;;;;;4917494;29;20043;-79
2022/09/10 10:03:57;;;;;;;3.45;2.70;;;21.70;99.90;;;;;;4920486;29;20058;-79
2022/09/10 10:06:27;;;;;;;3.83;3.42;;;21.80;99.90;;;;;;4903944;29;20043;-77
2022/09/10 10:08:59;;;;;;;5.53;2.92;;;22.00;99.90;;;;;;4922101;29;20039;-78
2022/09/10 10:11:52;;;;;;;4.10;3.15;;;22.20;99.90;;;;;;4910301;29;20043;-79
2022/09/10 10:14:18;;;;;;;;;;;22.60;99.90;;;;;;4930787;29;20039;-79
2022/09/10 10:16:50;;;;;;;5.10;3.67;;;22.90;99.90;;;;;;4916448;29;19922;-80
2022/09/10 10:19:37;;;;;;;5.33;3.60;;;23.30;99.90;;;;;;4931952;29;20043;-80
2022/09/10 10:22:18;;;;;;;4.50;3.67;;;23.70;99.90;;;;;;4920793;29;20127;-79
2022/09/10 10:24:48;;;;;;;4.85;3.67;;;23.60;99.90;;;;;;4910006;29;20052;-79
2022/09/10 10:27:28;;;;;;;4.22;3.40;;;23.20;99.90;;;;;;4927749;29;20054;-78
2022/09/10 10:30:06;;;;;;;5.43;3.38;;;22.90;99.90;;;;;;4915459;29;20035;-78
2022/09/10 10:32:37;;;;;;;3.15;2.53;;;22.80;99.90;;;;;;4924329;29;20398;-78
2022/09/10 10:35:41;;;;;;;3.35;3.00;;;22.90;99.90;;;;;;4923478;29;20081;-78
2022/09/10 10:38:29;;;;;;;4.63;3.17;;;23.10;99.90;;;;;;4918173;29;20052;-78
2022/09/10 10:41:19;;;;;;;4.22;2.90;;;23.00;99.90;;;;;;4886054;29;20048;-78
2022/09/10 10:43:46;;;;;;;4.70;3.72;;;22.50;99.90;;;;;;4901194;29;20495;-78
2022/09/10 10:46:23;;;;;;;4.60;2.95;;;22.00;99.90;;;;;;4899340;29;20407;-78
2022/09/10 10:49:18;;;;;;;3.88;2.95;;;22.10;99.90;;;;;;4919658;29;20050;-78
2022/09/10 10:52:02;;;;;;;3.75;2.90;;;22.30;99.90;;;;;;4920174;29;20050;-78
2022/09/10 10:54:49;;;;;;;3.22;2.80;;;22.50;99.90;;;;;;4904185;29;20055;-78
2022/09/10 10:57:32;;;;;;;5.20;3.22;;;22.20;99.90;;;;;;4900946;29;20032;-77
2022/09/10 11:00:21;;;;;;;4.78;2.92;;;21.70;99.90;;;;;;4901197;29;20048;-78
2022/09/10 11:03:04;;;;;;;2.40;2.20;;;21.50;99.90;;;;;;4926240;29;20055;-78
2022/09/10 11:05:37;;;;;;;;;;;22.10;99.90;;;;;;4912384;29;20055;-78
2022/09/10 11:08:15;;;;;;;2.58;2.08;;;22.60;98.60;;;;;;4921097;29;19940;-80
2022/09/10 11:10:59;;;;;;;2.33;1.83;;;23.10;98.80;;;;;;4925682;29;20458;-80
2022/09/10 11:13:33;;;;;;;3.53;2.10;;;23.30;94.60;;;;;;4927184;29;20048;-79
2022/09/10 11:16:24;;;;;;;2.70;2.00;;;23.40;90.00;;;;;;4930172;29;20050;-78
2022/09/10 11:19:04;;;;;;;2.28;2.00;;;23.50;91.20;;;;;;4938447;29;20498;-79
2022/09/10 11:21:39;;;;;;;3.10;2.58;;;23.50;90.90;;;;;;4919612;29;20039;-79
2022/09/10 11:24:23;;;;;;;3.08;2.58;;;23.50;91.60;;;;;;4907327;29;20031;-79
2022/09/10 11:26:58;;;;;;;3.47;2.00;;;23.50;92.10;;;;;;4931729;29;20043;-78
2022/09/10 11:29:36;;;;;;;2.88;2.45;;;23.70;94.00;;;;;;4938236;29;20091;-78
2022/09/10 11:32:37;;;;;;;2.00;1.80;;;23.90;95.40;;;;;;4919653;29;20125;-78
2022/09/10 11:35:25;;;;;;;4.25;2.33;;;24.10;88.50;;;;;;4909923;29;20039;-79
2022/09/10 11:38:06;;;;;;;2.42;1.95;;;23.90;84.30;;;;;;4906219;29;20122;-79
2022/09/10 11:40:45;;;;;;;3.15;2.03;;;23.80;87.40;;;;;;4926596;29;20043;-78
2022/09/10 11:43:32;;;;;;;2.40;1.73;;;23.30;86.80;;;;;;4932018;29;20049;-78
2022/09/10 11:46:03;;;;;;;2.15;1.90;;;23.20;90.20;;;;;;4917834;29;20035;-78
2022/09/10 11:48:38;;;;;;;2.53;1.90;;;23.10;91.90;;;;;;4920682;29;20050;-78
2022/09/10 11:51:29;;;;;;;3.00;1.83;;;23.30;91.80;;;;;;4929589;29;20070;-78
2022/09/10 11:53:55;;;;;;;3.28;2.20;;;23.10;86.40;;;;;;4927065;29;20043;-78
2022/09/10 11:56:39;;;;;;;3.45;1.98;;;23.10;89.40;;;;;;4934642;29;20413;-78
2022/09/10 11:59:36;;;;;;;3.90;1.77;;;23.50;91.10;;;;;;4929346;29;20125;-78
2022/09/10 12:02:25;;;;;;;2.67;1.80;;;23.80;88.80;;;;;;4910172;29;20130;-78
2022/09/10 12:04:54;;;;;;;2.60;1.50;;;23.90;88.20;;;;;;4916529;29;20482;-78
2022/09/10 12:07:27;;;;;;;2.70;1.55;;;23.60;87.60;;;;;;4908468;29;20051;-78
2022/09/10 12:10:10;;;;;;;2.08;1.55;;;23.60;88.20;;;;;;4896472;29;20039;-78
2022/09/10 12:12:50;;;;;;;1.58;1.02;;;23.30;86.50;;;;;;4901943;29;20510;-78
2022/09/10 12:15:30;;;;;;;2.72;1.20;;;22.80;86.30;;;;;;4918655;29;20174;-78
2022/09/10 12:18:10;;;;;;;2.22;1.48;;;22.50;87.80;;;;;;4925648;28;20536;-78
2022/09/10 12:20:42;;;;;;;3.65;2.25;;;22.20;90.10;;;;;;4918981;29;20071;-78
2022/09/10 12:23:27;;;;;;;3.20;2.27;;;22.00;90.00;;;;;;4928183;29;20031;-78
2022/09/10 12:26:02;;;;;;;2.30;2.10;;;21.70;90.50;;;;;;4903651;29;20039;-78
2022/09/10 12:28:40;;;;;;;2.50;1.90;;;21.70;96.50;;;;;;4914142;29;20529;-78
2022/09/10 12:31:07;;;;;;;2.28;2.05;;;21.70;97.80;;;;;;4906938;29;20130;-78
2022/09/10 12:33:35;;;;;;;4.10;3.00;;;21.70;96.80;;;;;;4901305;29;20123;-78
2022/09/10 12:36:02;;;;;;;4.18;2.65;;;21.50;95.80;;;;;;4909627;29;20398;-77
2022/09/10 12:39:05;;;;;;;3.40;2.50;;;21.30;95.60;;;;;;4917532;29;20094;-78
2022/09/10 12:41:31;;;;;;;2.83;2.42;;;21.20;97.40;;;;;;4902230;29;20051;-78
2022/09/10 12:43:58;;;;;;;3.90;2.53;;;21.00;99.10;;;;;;4912976;29;20036;-78
2022/09/10 12:46:25;;;;;;;2.95;2.50;;;21.00;99.90;;;;;;4907633;29;20051;-77
2022/09/10 12:48:54;;;;;;;3.50;2.78;;;20.90;99.90;;;;;;4901324;29;20494;-78
2022/09/10 12:51:48;;;;;;;3.30;2.70;;;20.80;99.90;;;;;;4902263;29;20044;-78
2022/09/10 12:54:52;;;;;;;4.00;3.05;;;20.90;99.90;;;;;;4917865;29;20110;-78
2022/09/10 12:58:02;;;;;;;3.97;3.15;;;20.80;99.90;;;;;;4915427;29;20099;-78
2022/09/10 13:00:54;;;;;;;3.28;2.90;;;20.70;99.90;;;;;;4914303;29;20048;-78
2022/09/10 13:03:25;;;;;;;4.75;2.88;;;20.70;99.90;;;;;;4901872;29;20035;-78